Time;durP1;ratioP1;P1;durP2;ratioP2;P2;SDS_P1;SDS_P2;PMS_P1;PMS_P2;Temp;Humidity;BMP_temperature;BMP_pressure;BME280_temperature;BME280_humidity;BME280_pressure;Samples;Min_cycle;Max_cycle;Signal;HPM_P1;HPM_P2
2022/04/02 00:02:18;;;;;;;9.27;7.10;;;4.30;99.90;;;;;;7388893;19;20127;-77
2022/04/02 00:04:44;;;;;;;9.57;6.53;;;4.30;99.90;;;;;;7387646;19;20153;-78
2022/04/02 00:07:10;;;;;;;9.33;7.50;;;4.40;99.90;;;;;;7397629;19;20585;-77
2022/04/02 00:09:36;;;;;;;8.40;6.63;;;4.40;99.90;;;;;;7388952;19;20135;-78
2022/04/02 00:12:02;;;;;;;9.20;7.17;;;4.50;99.90;;;;;;7389483;19;20127;-79
2022/04/02 00:14:29;;;;;;;8.43;6.77;;;4.50;99.90;;;;;;7388228;19;20142;-77
2022/04/02 00:16:55;;;;;;;9.03;7.00;;;4.50;99.90;;;;;;7386641;19;20142;-79
2022/04/02 00:19:21;;;;;;;9.60;7.17;;;4.50;99.90;;;;;;7386808;19;20126;-79
2022/04/02 00:21:47;;;;;;;8.03;6.57;;;4.50;99.90;;;;;;7390537;19;20153;-78
2022/04/02 00:24:13;;;;;;;8.10;7.17;;;4.50;99.90;;;;;;7387004;19;20149;-79
2022/04/02 00:26:38;;;;;;;8.00;6.57;;;4.50;99.90;;;;;;7386962;19;20139;-77
2022/04/02 00:29:07;;;;;;;6.93;6.13;;;4.60;99.90;;;;;;7390967;19;20142;-78
2022/04/02 00:31:32;;;;;;;9.93;7.57;;;4.60;99.90;;;;;;7389250;19;20126;-77
2022/04/02 00:33:59;;;;;;;9.07;7.40;;;4.80;99.90;;;;;;7386833;19;20204;-77
2022/04/02 00:36:24;;;;;;;11.90;7.73;;;4.60;99.90;;;;;;7388288;19;20190;-79
2022/04/02 00:38:50;;;;;;;10.70;7.60;;;4.60;99.90;;;;;;7384525;19;20579;-78
2022/04/02 00:41:16;;;;;;;9.37;7.13;;;4.50;99.90;;;;;;7388086;19;20630;-78
2022/04/02 00:43:55;;;;;;;11.63;7.43;;;4.50;99.90;;;;;;7386642;19;20135;-78
2022/04/02 00:46:21;;;;;;;9.57;7.03;;;4.50;99.90;;;;;;7387569;19;20218;-78
2022/04/02 00:48:48;;;;;;;8.23;6.40;;;4.60;99.90;;;;;;7391638;19;20155;-77
2022/04/02 00:51:16;;;;;;;9.57;7.07;;;4.50;99.90;;;;;;7388272;19;20525;-77
2022/04/02 00:53:44;;;;;;;9.43;7.37;;;4.40;99.90;;;;;;7386004;19;20178;-77
2022/04/02 00:56:11;;;;;;;8.40;6.97;;;4.60;99.90;;;;;;7386231;19;20139;-78
2022/04/02 00:58:39;;;;;;;9.80;7.60;;;4.50;99.90;;;;;;7387573;19;20134;-79
2022/04/02 01:01:06;;;;;;;8.93;7.03;;;4.50;99.90;;;;;;7387157;19;20176;-77
2022/04/02 01:03:35;;;;;;;11.87;7.57;;;4.60;99.90;;;;;;7384918;19;20145;-78
2022/04/02 01:06:02;;;;;;;8.00;6.60;;;4.50;99.90;;;;;;7387703;19;20164;-79
2022/04/02 01:08:28;;;;;;;9.37;6.97;;;4.70;99.90;;;;;;7399226;19;20507;-78
2022/04/02 01:10:56;;;;;;;8.13;6.43;;;4.70;99.90;;;;;;7395792;19;20605;-78
2022/04/02 01:13:22;;;;;;;8.47;6.30;;;4.60;99.90;;;;;;7386292;19;20138;-77
2022/04/02 01:15:49;;;;;;;8.33;6.47;;;4.60;99.90;;;;;;7387604;19;20198;-78
2022/04/02 01:18:14;;;;;;;9.67;7.17;;;4.70;99.90;;;;;;7385729;19;20590;-78
2022/04/02 01:20:40;;;;;;;8.63;6.50;;;4.60;99.90;;;;;;7388712;19;20142;-79
2022/04/02 01:23:08;;;;;;;11.97;6.97;;;4.60;99.90;;;;;;7384257;19;20179;-78
2022/04/02 01:25:35;;;;;;;8.37;6.57;;;4.50;99.90;;;;;;7386612;19;20141;-79
2022/04/02 01:28:03;;;;;;;7.97;6.60;;;4.50;99.90;;;;;;7386184;19;20142;-80
2022/04/02 01:30:29;;;;;;;9.70;6.80;;;4.50;99.90;;;;;;7391079;19;20222;-78
2022/04/02 01:32:55;;;;;;;9.13;6.97;;;4.50;99.90;;;;;;7398805;19;20134;-78
2022/04/02 01:35:22;;;;;;;8.67;6.33;;;4.50;99.90;;;;;;7392651;19;20150;-79
2022/04/02 01:37:50;;;;;;;9.27;6.47;;;4.60;99.90;;;;;;7392332;19;20153;-79
2022/04/02 01:40:17;;;;;;;12.57;6.60;;;4.60;99.90;;;;;;7394642;19;20138;-80
2022/04/02 01:42:43;;;;;;;7.87;6.33;;;4.50;99.90;;;;;;7393343;19;20138;-79
2022/04/02 01:45:10;;;;;;;8.80;6.70;;;4.60;99.90;;;;;;7396554;19;20620;-78
2022/04/02 01:47:35;;;;;;;7.63;5.70;;;4.50;99.90;;;;;;7393177;19;20159;-80
2022/04/02 01:50:02;;;;;;;9.10;6.60;;;4.60;99.90;;;;;;7394094;19;20134;-79
2022/04/02 01:52:28;;;;;;;10.30;6.50;;;4.60;99.90;;;;;;7394048;19;20142;-79
2022/04/02 01:54:53;;;;;;;7.33;6.13;;;4.60;99.90;;;;;;7404115;19;20616;-78
2022/04/02 01:57:19;;;;;;;7.93;6.00;;;4.60;99.90;;;;;;7395431;19;20131;-79
2022/04/02 01:59:47;;;;;;;8.87;6.60;;;4.40;99.90;;;;;;7395562;19;20167;-79
2022/04/02 02:02:14;;;;;;;7.67;5.90;;;4.60;99.90;;;;;;7392340;19;20139;-76
2022/04/02 02:04:40;;;;;;;8.33;6.20;;;4.70;99.90;;;;;;7398210;19;20123;-77
2022/04/02 02:07:06;;;;;;;8.13;6.13;;;4.70;99.90;;;;;;7393294;19;20444;-77
2022/04/02 02:09:33;;;;;;;7.13;6.20;;;4.60;99.90;;;;;;7395773;19;20651;-79
2022/04/02 02:12:00;;;;;;;8.70;6.30;;;4.50;99.90;;;;;;7398258;19;20130;-79
2022/04/02 02:14:26;;;;;;;7.10;5.90;;;4.50;99.90;;;;;;7401470;19;20257;-78
2022/04/02 02:16:52;;;;;;;9.33;5.73;;;4.40;99.90;;;;;;7412561;19;20138;-78
2022/04/02 02:19:18;;;;;;;7.70;5.57;;;4.40;99.90;;;;;;7394999;19;20143;-80
2022/04/02 02:21:44;;;;;;;7.53;5.17;;;4.60;99.90;;;;;;7392325;19;20489;-78
2022/04/02 02:24:10;;;;;;;8.27;5.30;;;4.60;99.90;;;;;;7395855;19;20139;-79
2022/04/02 02:26:35;;;;;;;6.73;5.20;;;4.60;99.90;;;;;;7392462;19;20130;-77
2022/04/02 02:29:04;;;;;;;9.33;5.93;;;4.50;99.90;;;;;;7392369;19;20546;-77
2022/04/02 02:31:31;;;;;;;9.23;5.53;;;4.40;99.90;;;;;;7393094;19;20134;-79
2022/04/02 02:36:41;;;;;;;6.17;5.10;;;4.50;99.90;;;;;;7393149;19;20158;-80
2022/04/02 02:39:07;;;;;;;7.43;5.20;;;4.50;99.90;;;;;;7393587;19;20750;-80
2022/04/02 02:41:32;;;;;;;7.77;5.53;;;4.60;99.90;;;;;;7403661;19;20542;-79
2022/04/02 02:43:58;;;;;;;5.47;4.83;;;4.70;99.90;;;;;;7392298;19;20153;-80
2022/04/02 02:46:24;;;;;;;6.60;5.37;;;4.60;99.90;;;;;;7390386;19;20630;-78
2022/04/02 02:48:50;;;;;;;6.50;5.17;;;4.60;99.90;;;;;;7397315;19;20167;-78
2022/04/02 02:51:16;;;;;;;7.20;4.80;;;4.60;99.90;;;;;;7392369;19;20147;-77
2022/04/02 02:53:44;;;;;;;9.33;5.40;;;4.50;99.90;;;;;;7392344;19;20131;-77
2022/04/02 02:56:13;;;;;;;5.33;4.43;;;4.50;99.90;;;;;;7389253;19;20138;-80
2022/04/02 02:58:39;;;;;;;5.27;4.73;;;4.50;99.90;;;;;;7395218;19;20666;-78
2022/04/02 03:01:04;;;;;;;6.30;4.67;;;4.50;99.90;;;;;;7403409;19;20122;-77
2022/04/02 03:03:31;;;;;;;5.50;4.27;;;4.50;99.90;;;;;;7407784;19;20127;-80
2022/04/02 03:05:57;;;;;;;5.67;4.70;;;4.60;99.90;;;;;;7392571;19;20129;-80
2022/04/02 03:08:23;;;;;;;5.37;4.53;;;4.60;99.90;;;;;;7391685;19;20131;-78
2022/04/02 03:10:49;;;;;;;5.47;4.67;;;4.60;99.90;;;;;;7389404;19;20164;-78
2022/04/02 03:13:16;;;;;;;6.30;4.70;;;4.60;99.90;;;;;;7389542;19;20123;-80
2022/04/02 03:15:42;;;;;;;4.80;4.13;;;4.60;99.90;;;;;;7395263;19;20218;-78
2022/04/02 03:18:09;;;;;;;6.43;4.10;;;4.60;99.90;;;;;;7390192;19;20569;-77
2022/04/02 03:20:36;;;;;;;6.23;4.60;;;4.50;99.90;;;;;;7391458;19;20490;-77
2022/04/02 03:23:04;;;;;;;7.60;4.23;;;4.50;99.90;;;;;;7389641;19;20135;-79
2022/04/02 03:25:30;;;;;;;5.63;4.50;;;4.50;99.90;;;;;;7397354;19;20123;-79
2022/04/02 03:27:56;;;;;;;6.70;4.50;;;4.60;99.90;;;;;;7394764;19;20163;-79
2022/04/02 03:30:24;;;;;;;7.87;4.00;;;4.60;99.90;;;;;;7388995;19;20142;-79
2022/04/02 03:32:51;;;;;;;6.00;4.63;;;4.60;99.90;;;;;;7388501;19;20810;-79
2022/04/02 03:35:18;;;;;;;5.83;4.20;;;4.70;99.90;;;;;;7390273;19;20194;-79
2022/04/02 03:37:49;;;;;;;8.53;4.70;;;4.60;99.90;;;;;;7386499;19;20221;-78
2022/04/02 03:40:17;;;;;;;5.43;4.20;;;4.60;99.90;;;;;;7392706;19;20150;-79
2022/04/02 03:42:45;;;;;;;8.27;4.50;;;4.60;99.90;;;;;;7391263;19;20138;-79
2022/04/02 03:45:14;;;;;;;7.23;4.07;;;4.70;99.90;;;;;;7396459;19;20138;-80
2022/04/02 03:47:40;;;;;;;6.57;4.53;;;4.40;99.90;;;;;;7389250;19;20210;-78
2022/04/02 03:50:07;;;;;;;7.57;4.10;;;4.60;99.90;;;;;;7390185;19;20146;-79
2022/04/02 03:52:33;;;;;;;5.33;3.83;;;4.40;99.90;;;;;;7390204;19;20504;-78
2022/04/02 03:54:59;;;;;;;6.13;3.80;;;4.30;99.90;;;;;;7388172;19;20138;-78
2022/04/02 03:57:25;;;;;;;8.00;4.60;;;4.40;99.90;;;;;;7386851;19;20619;-79
2022/04/02 03:59:50;;;;;;;5.97;3.70;;;4.30;99.90;;;;;;7388106;19;20776;-79
2022/04/02 04:02:16;;;;;;;4.50;3.93;;;4.40;99.90;;;;;;7390417;19;20138;-78
2022/04/02 04:04:42;;;;;;;5.23;3.60;;;4.40;99.90;;;;;;7387600;19;20138;-78
2022/04/02 04:07:08;;;;;;;8.20;3.57;;;4.50;99.90;;;;;;7395317;19;20139;-78
2022/04/02 04:09:36;;;;;;;5.97;3.33;;;4.50;99.90;;;;;;7392904;19;20177;-77
2022/04/02 04:12:02;;;;;;;10.70;3.80;;;4.40;99.90;;;;;;7387862;19;20134;-80
2022/04/02 04:14:28;;;;;;;7.27;3.97;;;4.20;99.90;;;;;;7388541;19;20143;-77
2022/04/02 04:16:54;;;;;;;7.13;3.60;;;4.30;99.90;;;;;;7388628;19;20130;-78
2022/04/02 04:19:21;;;;;;;6.13;3.40;;;4.10;99.90;;;;;;7386714;19;20137;-79
2022/04/02 04:21:47;;;;;;;5.10;3.40;;;4.10;99.90;;;;;;7386963;19;20138;-78
2022/04/02 04:24:14;;;;;;;5.80;3.83;;;4.10;99.90;;;;;;7388407;19;20134;-78
2022/04/02 04:26:44;;;;;;;5.57;3.50;;;4.10;99.90;;;;;;7391998;19;20155;-79
2022/04/02 04:29:10;;;;;;;5.17;3.80;;;4.00;99.90;;;;;;7389334;19;20166;-77
2022/04/02 04:31:37;;;;;;;8.63;3.60;;;4.00;99.90;;;;;;7390529;19;20669;-76
2022/04/02 04:34:03;;;;;;;5.97;3.97;;;4.00;99.90;;;;;;7387681;19;20502;-79
2022/04/02 04:36:29;;;;;;;4.30;3.50;;;4.00;99.90;;;;;;7385962;19;20203;-78
2022/04/02 04:38:56;;;;;;;4.17;3.50;;;4.00;99.90;;;;;;7388349;19;20162;-78
2022/04/02 04:41:22;;;;;;;5.07;3.73;;;3.90;99.90;;;;;;7388186;19;20492;-79
2022/04/02 04:43:48;;;;;;;8.30;4.17;;;3.90;99.90;;;;;;7387867;19;20142;-78
2022/04/02 04:46:19;;;;;;;5.63;3.93;;;4.00;99.90;;;;;;7385830;19;20137;-75
2022/04/02 04:48:45;;;;;;;6.70;4.37;;;3.90;99.90;;;;;;7387994;19;20157;-78
2022/04/02 04:51:12;;;;;;;8.03;4.67;;;3.80;99.90;;;;;;7393309;19;20904;-77
2022/04/02 04:53:38;;;;;;;8.17;4.70;;;3.80;99.90;;;;;;7386792;19;20491;-78
2022/04/02 04:56:05;;;;;;;7.00;4.73;;;3.80;99.90;;;;;;7385737;19;20154;-78
2022/04/02 04:58:30;;;;;;;6.33;4.67;;;3.90;99.90;;;;;;7385934;19;20141;-78
2022/04/02 05:00:58;;;;;;;8.00;4.97;;;3.70;99.90;;;;;;7387561;19;20134;-78
2022/04/02 05:03:27;;;;;;;6.43;5.07;;;3.60;99.90;;;;;;7386681;19;20650;-78
2022/04/02 05:05:55;;;;;;;6.07;4.67;;;3.60;99.90;;;;;;7385254;19;20155;-78
2022/04/02 05:08:21;;;;;;;6.07;4.90;;;3.60;99.90;;;;;;7392827;19;20135;-78
2022/04/02 05:10:48;;;;;;;6.93;4.53;;;3.50;99.90;;;;;;7389598;19;20155;-78
2022/04/02 05:13:14;;;;;;;6.00;4.60;;;3.60;99.90;;;;;;7387717;19;20203;-76
2022/04/02 05:15:41;;;;;;;6.03;4.63;;;3.50;99.90;;;;;;7389907;19;20170;-78
2022/04/02 05:18:11;;;;;;;5.33;4.83;;;3.50;99.90;;;;;;7388574;19;20143;-78
2022/04/02 05:20:38;;;;;;;7.03;4.87;;;3.60;99.90;;;;;;7386173;19;20130;-79
2022/04/02 05:23:05;;;;;;;5.37;4.60;;;3.80;99.90;;;;;;7384200;19;20130;-78
2022/04/02 05:25:33;;;;;;;7.23;4.90;;;3.80;99.90;;;;;;7388813;19;20134;-80
2022/04/02 05:28:06;;;;;;;6.27;4.40;;;3.80;99.90;;;;;;7389975;19;20150;-77
2022/04/02 05:30:33;;;;;;;8.23;4.67;;;3.80;99.90;;;;;;7385730;19;20154;-79
2022/04/02 05:32:59;;;;;;;4.40;3.97;;;3.80;99.90;;;;;;7384528;19;20147;-79
2022/04/02 05:35:25;;;;;;;4.90;4.07;;;3.80;99.90;;;;;;7386737;19;20135;-77
2022/04/02 05:37:51;;;;;;;6.50;4.87;;;4.00;99.90;;;;;;7382782;19;20143;-79
2022/04/02 05:40:16;;;;;;;4.20;3.80;;;3.90;99.90;;;;;;7384750;19;20146;-77
2022/04/02 05:42:43;;;;;;;5.87;4.43;;;3.90;99.90;;;;;;7385424;19;20126;-79
2022/04/02 05:45:09;;;;;;;5.30;4.37;;;3.80;99.90;;;;;;7386622;19;20516;-78
2022/04/02 05:47:49;;;;;;;4.67;4.20;;;3.80;99.90;;;;;;7385508;19;20625;-78
2022/04/02 05:50:17;;;;;;;5.73;4.50;;;3.80;99.90;;;;;;7389413;19;20142;-77
2022/04/02 05:52:43;;;;;;;5.57;3.60;;;3.80;99.90;;;;;;7389425;19;20134;-78
2022/04/02 05:55:12;;;;;;;7.63;4.23;;;3.80;99.90;;;;;;7384544;19;20153;-77
2022/04/02 05:57:40;;;;;;;5.77;3.97;;;3.80;99.90;;;;;;7385692;19;20147;-79
2022/04/02 06:00:10;;;;;;;5.67;3.83;;;3.80;99.90;;;;;;7384728;19;20143;-79
2022/04/02 06:02:37;;;;;;;4.77;3.80;;;3.90;99.90;;;;;;7385701;19;20134;-79
2022/04/02 06:05:04;;;;;;;7.47;4.13;;;3.80;99.90;;;;;;7386455;19;20130;-77
2022/04/02 06:07:30;;;;;;;7.27;4.00;;;3.70;99.90;;;;;;7384256;19;20137;-78
2022/04/02 06:09:57;;;;;;;5.87;4.47;;;3.60;99.90;;;;;;7391231;19;20139;-79
2022/04/02 06:12:23;;;;;;;6.07;4.37;;;3.50;99.90;;;;;;7397309;19;20142;-78
2022/04/02 06:14:49;;;;;;;5.37;3.97;;;3.60;99.90;;;;;;7386222;19;20147;-77
2022/04/02 06:17:15;;;;;;;4.23;3.83;;;3.80;99.90;;;;;;7395302;19;20135;-78
2022/04/02 06:19:40;;;;;;;5.33;4.07;;;3.90;99.90;;;;;;7395651;19;20134;-78
2022/04/02 06:22:07;;;;;;;5.73;4.20;;;3.80;99.90;;;;;;7394256;19;20154;-77
2022/04/02 06:24:34;;;;;;;5.27;4.27;;;3.60;99.90;;;;;;7394027;19;20173;-80
2022/04/02 06:27:00;;;;;;;5.70;3.97;;;3.80;99.90;;;;;;7393980;19;20134;-78
2022/04/02 06:29:26;;;;;;;4.90;3.57;;;3.70;99.90;;;;;;7397865;19;20150;-78
2022/04/02 06:31:51;;;;;;;4.90;3.77;;;3.60;99.90;;;;;;7399683;19;20281;-79
2022/04/02 06:34:17;;;;;;;5.40;3.40;;;3.60;99.90;;;;;;7393984;19;20860;-78
2022/04/02 06:36:43;;;;;;;5.27;3.93;;;3.60;99.90;;;;;;7393803;19;20586;-79
2022/04/02 06:39:12;;;;;;;5.00;3.20;;;3.70;99.90;;;;;;7394610;19;20134;-79
2022/04/02 06:41:39;;;;;;;5.17;3.47;;;3.60;99.90;;;;;;7393599;19;20135;-79
2022/04/02 06:44:07;;;;;;;6.60;4.00;;;3.70;99.90;;;;;;7392434;19;20176;-82
2022/04/02 06:46:33;;;;;;;5.77;3.97;;;3.80;99.90;;;;;;7390413;19;20154;-78
2022/04/02 06:48:59;;;;;;;3.87;3.50;;;3.70;99.90;;;;;;7392188;19;20134;-78
2022/04/02 06:51:26;;;;;;;5.87;3.77;;;3.80;99.90;;;;;;7397401;19;20532;-78
2022/04/02 06:53:53;;;;;;;3.93;3.13;;;3.80;99.90;;;;;;7395052;19;20477;-78
2022/04/02 06:56:19;;;;;;;4.80;3.47;;;3.90;99.90;;;;;;7390551;19;20146;-79
2022/04/02 06:58:44;;;;;;;5.50;3.10;;;3.80;99.90;;;;;;7392506;19;20139;-78
2022/04/02 07:01:10;;;;;;;4.97;3.83;;;3.70;99.90;;;;;;7392753;19;20200;-78
2022/04/02 07:03:39;;;;;;;4.37;3.50;;;3.60;99.90;;;;;;7391212;19;20562;-81
2022/04/02 07:06:05;;;;;;;5.13;3.67;;;3.50;99.90;;;;;;7391263;19;20147;-81
2022/04/02 07:08:31;;;;;;;4.47;3.47;;;3.60;99.90;;;;;;7398302;19;20151;-80
2022/04/02 07:10:57;;;;;;;5.27;3.80;;;3.60;99.90;;;;;;7405963;19;20160;-82
2022/04/02 07:13:24;;;;;;;5.83;3.20;;;3.70;99.90;;;;;;7390205;19;20169;-80
2022/04/02 07:15:50;;;;;;;4.27;3.23;;;3.60;99.90;;;;;;7386148;19;20761;-80
2022/04/02 07:18:17;;;;;;;4.97;3.77;;;3.60;99.90;;;;;;7394326;19;20146;-79
2022/04/02 07:20:43;;;;;;;4.27;3.33;;;3.60;99.90;;;;;;7388283;19;20142;-81
2022/04/02 07:23:09;;;;;;;5.15;4.22;;;3.60;99.90;;;;;;7386248;19;20407;-85
2022/04/02 07:25:40;;;;;;;4.75;4.22;;;3.70;99.90;;;;;;7388655;19;20386;-79
2022/04/02 07:28:07;;;;;;;3.77;3.33;;;3.70;99.90;;;;;;7397148;19;20171;-79
2022/04/02 07:30:34;;;;;;;4.20;3.73;;;3.70;99.90;;;;;;7396202;19;20500;-78
2022/04/02 07:33:02;;;;;;;4.27;3.73;;;3.70;99.90;;;;;;7388650;19;20162;-80
2022/04/02 07:35:34;;;;;;;4.30;3.50;;;3.60;99.90;;;;;;7385208;19;20141;-78
2022/04/02 07:38:12;;;;;;;4.80;3.80;;;3.60;99.90;;;;;;7384987;19;20175;-82
2022/04/02 07:40:51;;;;;;;7.23;4.13;;;3.50;99.90;;;;;;7389800;19;20134;-79
2022/04/02 07:43:36;;;;;;;5.53;3.90;;;3.60;99.90;;;;;;7384313;19;20144;-81
2022/04/02 07:46:08;;;;;;;4.53;3.63;;;3.50;99.90;;;;;;7389589;19;20139;-82
2022/04/02 07:48:37;;;;;;;4.87;3.50;;;3.30;99.90;;;;;;7393490;19;20131;-79
2022/04/02 07:51:11;;;;;;;4.60;3.80;;;3.40;99.90;;;;;;7395347;19;20189;-80
2022/04/02 07:53:53;;;;;;;3.53;2.97;;;3.40;99.90;;;;;;7389172;19;20142;-80
2022/04/02 07:56:30;;;;;;;6.40;3.37;;;3.30;99.90;;;;;;7390851;19;20624;-82
2022/04/02 07:59:03;;;;;;;4.17;3.50;;;3.30;99.90;;;;;;7393024;19;20145;-80
2022/04/02 08:01:29;;;;;;;4.90;3.67;;;3.40;99.90;;;;;;7393448;19;20143;-83
2022/04/02 08:03:56;;;;;;;5.35;4.30;;;3.40;99.90;;;;;;7392413;19;20390;-83
2022/04/02 08:06:23;;;;;;;5.90;3.87;;;3.60;99.90;;;;;;7398331;19;20151;-86
2022/04/02 08:08:49;;;;;;;6.10;3.70;;;3.60;99.90;;;;;;7402037;19;20162;-83
2022/04/02 08:11:18;;;;;;;4.93;3.53;;;3.60;99.90;;;;;;7410077;19;20135;-80
2022/04/02 08:13:45;;;;;;;6.57;3.60;;;3.50;99.90;;;;;;7394172;19;20169;-82
2022/04/02 08:16:11;;;;;;;5.03;3.87;;;3.50;99.90;;;;;;7393538;19;20135;-79
2022/04/02 08:18:41;;;;;;;5.63;3.50;;;3.50;99.90;;;;;;7390814;19;20210;-83
2022/04/02 08:21:08;;;;;;;5.03;3.80;;;3.50;99.90;;;;;;7392277;19;20248;-81
2022/04/02 08:23:34;;;;;;;3.87;3.40;;;3.40;99.90;;;;;;7395829;19;20598;-82
2022/04/02 08:26:29;;;;;;;5.40;3.33;;;3.40;99.90;;;;;;7392036;19;20146;-79
2022/04/02 08:29:19;;;;;;;4.90;3.80;;;3.30;99.90;;;;;;7391305;19;20181;-82
2022/04/02 08:32:19;;;;;;;4.30;3.60;;;3.30;99.90;;;;;;7405521;19;20142;-80
2022/04/02 08:35:12;;;;;;;5.67;4.30;;;3.10;99.90;;;;;;7398477;19;20254;-82
2022/04/02 08:37:56;;;;;;;4.53;3.47;;;3.10;99.90;;;;;;7391419;19;20207;-80
2022/04/02 08:41:06;;;;;;;5.57;3.97;;;3.00;99.90;;;;;;7390897;19;20194;-82
2022/04/02 08:43:54;;;;;;;5.10;3.67;;;3.00;99.90;;;;;;7390454;19;20163;-84
2022/04/02 08:46:38;;;;;;;5.27;4.00;;;3.00;99.90;;;;;;7388522;19;20134;-80
2022/04/02 08:49:31;;;;;;;4.43;3.70;;;3.00;99.90;;;;;;7391930;19;20211;-81
2022/04/02 08:52:07;;;;;;;6.03;4.40;;;3.10;99.90;;;;;;7388319;19;20142;-80
2022/04/02 08:55:09;;;;;;;5.80;4.35;;;3.30;99.90;;;;;;7389770;19;20401;-78
2022/04/02 08:58:01;;;;;;;4.47;4.00;;;3.40;99.90;;;;;;7389884;19;20139;-74
2022/04/02 09:00:27;;;;;;;6.03;3.83;;;3.30;99.90;;;;;;7407752;19;20157;-78
2022/04/02 09:03:43;;;;;;;5.37;4.27;;;3.30;99.90;;;;;;7388365;19;20212;-85
2022/04/02 09:06:18;;;;;;;4.20;3.60;;;3.40;99.90;;;;;;7383016;19;20148;-78
2022/04/02 09:08:47;;;;;;;6.40;4.67;;;3.50;99.90;;;;;;7384313;19;20154;-77
2022/04/02 09:11:23;;;;;;;6.97;4.63;;;3.60;99.90;;;;;;7387570;19;20624;-83
2022/04/02 09:13:57;;;;;;;5.33;4.20;;;3.40;99.90;;;;;;7388984;19;20510;-80
2022/04/02 09:16:41;;;;;;;4.97;4.37;;;3.30;99.90;;;;;;7386708;19;20506;-89
2022/04/02 09:19:29;;;;;;;8.63;4.60;;;3.30;99.90;;;;;;7388305;19;20162;-85
2022/04/02 09:22:04;;;;;;;5.20;4.50;;;3.40;99.90;;;;;;7391036;19;20501;-79
2022/04/02 09:24:58;;;;;;;6.20;5.00;;;3.40;99.90;;;;;;7384471;19;20150;-77
2022/04/02 09:27:45;;;;;;;5.90;4.47;;;3.30;99.90;;;;;;7386957;19;20238;-80
2022/04/02 09:31:10;;;;;;;6.60;4.67;;;3.40;99.90;;;;;;7384293;19;20749;-76
2022/04/02 09:33:48;;;;;;;6.53;4.83;;;3.30;99.90;;;;;;7382421;19;20163;-80
2022/04/02 09:36:31;;;;;;;7.13;4.60;;;3.30;99.90;;;;;;7383284;19;20217;-79
2022/04/02 09:39:03;;;;;;;7.47;5.40;;;3.30;99.90;;;;;;7388167;19;20127;-73
2022/04/02 09:41:40;;;;;;;7.47;4.97;;;3.30;99.90;;;;;;7394813;19;20911;-80
2022/04/02 09:44:29;;;;;;;5.57;3.90;;;3.30;99.90;;;;;;7386937;19;20582;-80
2022/04/02 09:47:34;;;;;;;6.37;4.80;;;3.20;99.90;;;;;;7386438;19;20601;-83
2022/04/02 09:50:16;;;;;;;6.37;4.13;;;3.20;99.90;;;;;;7388360;19;20720;-81
2022/04/02 09:52:46;;;;;;;6.20;4.73;;;3.10;99.90;;;;;;7397262;19;20182;-79
2022/04/02 09:55:21;;;;;;;9.57;5.30;;;3.20;99.90;;;;;;7397032;19;20623;-80
2022/04/02 09:58:06;;;;;;;7.20;5.27;;;3.30;99.90;;;;;;7397640;19;20524;-81
2022/04/02 10:00:50;;;;;;;8.80;4.87;;;3.40;99.90;;;;;;7397389;19;20319;-78
2022/04/02 10:03:44;;;;;;;8.93;4.50;;;3.50;99.90;;;;;;7405208;19;20138;-79
2022/04/02 10:06:25;;;;;;;6.23;4.23;;;3.60;99.90;;;;;;7396380;19;20638;-77
2022/04/02 10:09:05;;;;;;;6.63;4.97;;;3.70;99.90;;;;;;7397770;19;20202;-76
2022/04/02 10:11:34;;;;;;;7.53;4.40;;;3.90;99.90;;;;;;7393130;19;20167;-78
2022/04/02 10:14:02;;;;;;;6.87;4.73;;;3.60;99.90;;;;;;7390275;19;20194;-78
2022/04/02 10:16:29;;;;;;;7.33;4.50;;;3.50;99.90;;;;;;7389660;19;20147;-78
2022/04/02 10:18:58;;;;;;;6.63;4.47;;;3.60;99.90;;;;;;7393708;19;20162;-78
2022/04/02 10:21:24;;;;;;;6.60;4.87;;;3.50;99.90;;;;;;7392198;19;20221;-75
2022/04/02 10:24:04;;;;;;;6.70;4.80;;;3.40;99.90;;;;;;7397308;19;20503;-79
2022/04/02 10:26:38;;;;;;;7.73;4.67;;;3.60;99.90;;;;;;7405961;19;20523;-80
2022/04/02 10:29:13;;;;;;;6.23;4.40;;;3.60;99.90;;;;;;7392759;19;20264;-76
2022/04/02 10:32:11;;;;;;;5.37;4.30;;;3.50;99.90;;;;;;7392873;19;20138;-77
2022/04/02 10:35:01;;;;;;;8.40;4.90;;;3.60;99.90;;;;;;7387659;19;20524;-76
2022/04/02 10:37:47;;;;;;;6.23;4.60;;;3.60;99.90;;;;;;7390567;19;20158;-79
2022/04/02 10:40:18;;;;;;;7.77;4.90;;;3.70;99.90;;;;;;7393617;19;20138;-79
2022/04/02 10:42:55;;;;;;;6.47;4.57;;;3.70;99.90;;;;;;7388131;19;20130;-82
2022/04/02 10:45:22;;;;;;;9.10;5.30;;;3.40;99.90;;;;;;7394566;19;20574;-78
2022/04/02 10:48:10;;;;;;;5.70;4.57;;;3.40;99.90;;;;;;7403431;19;20139;-79
2022/04/02 10:50:44;;;;;;;7.47;4.53;;;3.60;99.90;;;;;;7393260;19;20601;-76
2022/04/02 10:53:17;;;;;;;8.40;4.90;;;3.80;99.90;;;;;;7393518;19;20536;-80
2022/04/02 10:55:49;;;;;;;6.43;4.77;;;3.80;99.90;;;;;;7393952;19;20184;-77
2022/04/02 10:58:21;;;;;;;6.53;4.33;;;3.70;99.90;;;;;;7393962;19;20135;-76
2022/04/02 11:00:47;;;;;;;5.90;4.43;;;3.60;99.90;;;;;;7393548;19;20183;-80
2022/04/02 11:03:39;;;;;;;5.40;4.53;;;3.60;99.90;;;;;;7390397;19;20130;-80
2022/04/02 11:06:08;;;;;;;5.77;4.50;;;3.70;99.90;;;;;;7395413;19;20149;-77
2022/04/02 11:08:34;;;;;;;5.60;4.37;;;3.80;99.90;;;;;;7402027;19;20156;-76
2022/04/02 11:11:23;;;;;;;6.30;4.53;;;3.80;99.90;;;;;;7392388;19;20158;-76
2022/04/02 11:14:01;;;;;;;5.90;4.40;;;3.70;99.90;;;;;;7393329;19;20127;-77
2022/04/02 11:16:40;;;;;;;5.90;4.50;;;3.60;99.90;;;;;;7391220;19;20221;-75
2022/04/02 11:22:04;;;;;;;8.07;5.23;;;3.60;99.90;;;;;;7390178;19;20146;-80
2022/04/02 11:24:59;;;;;;;8.83;5.30;;;3.60;99.90;;;;;;7384652;19;20242;-75
2022/04/02 11:27:28;;;;;;;7.07;5.00;;;3.70;99.90;;;;;;7389438;19;20149;-79
2022/04/02 11:30:01;;;;;;;9.27;5.90;;;3.80;99.90;;;;;;7399730;19;20219;-78
2022/04/02 11:32:36;;;;;;;6.70;4.93;;;4.00;99.90;;;;;;7393469;19;20142;-79
2022/04/02 11:35:07;;;;;;;7.43;5.30;;;4.00;99.90;;;;;;7392074;19;20130;-78
2022/04/02 11:37:44;;;;;;;9.40;5.50;;;4.00;99.90;;;;;;7388932;19;20193;-78
2022/04/02 11:40:14;;;;;;;8.67;5.50;;;4.10;99.90;;;;;;7391825;19;20508;-81
2022/04/02 11:42:46;;;;;;;8.77;4.87;;;4.00;99.90;;;;;;7391609;19;20154;-79
2022/04/02 11:45:20;;;;;;;7.30;4.80;;;4.00;99.90;;;;;;7392205;19;20127;-82
2022/04/02 11:48:09;;;;;;;6.57;5.20;;;3.70;99.90;;;;;;7408320;19;20162;-78
2022/04/02 11:50:39;;;;;;;8.00;5.40;;;3.70;99.90;;;;;;7392385;19;20143;-79
2022/04/02 11:53:05;;;;;;;8.57;5.47;;;3.60;99.90;;;;;;7392144;19;20135;-81
2022/04/02 11:55:36;;;;;;;12.53;5.03;;;3.70;99.90;;;;;;7391709;19;20247;-82
2022/04/02 11:58:04;;;;;;;8.73;5.33;;;3.70;99.90;;;;;;7391179;19;20159;-82
2022/04/02 12:00:34;;;;;;;8.70;5.60;;;3.70;99.90;;;;;;7392621;19;20133;-78
2022/04/02 12:03:01;;;;;;;7.03;5.17;;;3.60;99.90;;;;;;7390801;19;20130;-79
2022/04/02 12:05:35;;;;;;;6.53;5.00;;;3.60;99.90;;;;;;7390265;19;20670;-81
2022/04/02 12:08:02;;;;;;;13.90;5.73;;;3.70;99.90;;;;;;7390862;19;20157;-82
2022/04/02 12:10:31;;;;;;;9.83;6.00;;;3.90;99.90;;;;;;7393452;19;20160;-79
2022/04/02 12:12:59;;;;;;;8.20;6.00;;;3.90;99.90;;;;;;7406637;19;20178;-78
2022/04/02 12:15:26;;;;;;;7.07;5.73;;;3.90;99.90;;;;;;7403875;19;20127;-77
2022/04/02 12:17:59;;;;;;;7.10;5.87;;;4.00;99.90;;;;;;7387674;19;20150;-82
2022/04/02 12:20:40;;;;;;;6.63;5.50;;;4.20;99.90;;;;;;7391964;19;20185;-78
2022/04/02 12:23:13;;;;;;;7.30;5.60;;;4.10;99.90;;;;;;7387492;19;20209;-78
2022/04/02 12:25:58;;;;;;;7.33;5.90;;;4.20;99.90;;;;;;7389627;19;20146;-78
2022/04/02 12:28:25;;;;;;;7.80;5.87;;;4.10;99.90;;;;;;7391190;19;20163;-80
2022/04/02 12:30:53;;;;;;;6.67;5.73;;;4.00;99.90;;;;;;7396547;19;20146;-83
2022/04/02 12:33:21;;;;;;;8.00;6.40;;;4.00;99.90;;;;;;7403635;19;20207;-82
2022/04/02 12:35:58;;;;;;;8.83;6.40;;;4.10;99.90;;;;;;7402091;19;20628;-82
2022/04/02 12:38:31;;;;;;;8.20;6.03;;;3.80;99.90;;;;;;7393597;19;20170;-81
2022/04/02 12:40:58;;;;;;;8.33;6.27;;;3.80;99.90;;;;;;7390222;19;20141;-79
2022/04/02 12:43:29;;;;;;;9.23;7.13;;;3.80;99.90;;;;;;7388682;19;20138;-78
2022/04/02 12:45:56;;;;;;;8.67;6.03;;;3.90;99.90;;;;;;7389818;19;20158;-78
2022/04/02 12:48:24;;;;;;;7.57;5.80;;;3.90;99.90;;;;;;7389396;19;20150;-80
2022/04/02 12:51:01;;;;;;;8.80;6.57;;;4.00;99.90;;;;;;7386176;19;20502;-79
2022/04/02 12:53:32;;;;;;;7.73;6.33;;;4.10;99.90;;;;;;7391051;19;20158;-79
2022/04/02 12:56:00;;;;;;;12.43;6.53;;;4.10;99.90;;;;;;7394066;19;20835;-79
2022/04/02 12:58:36;;;;;;;7.97;6.30;;;4.00;99.90;;;;;;7403647;19;20153;-79
2022/04/02 13:01:25;;;;;;;8.53;6.27;;;3.80;99.90;;;;;;7391667;19;20151;-80
2022/04/02 13:04:10;;;;;;;6.40;5.63;;;4.00;99.90;;;;;;7390417;19;20628;-78
2022/04/02 13:06:42;;;;;;;7.23;5.87;;;4.10;99.90;;;;;;7389775;19;20401;-81
2022/04/02 13:09:19;;;;;;;8.97;6.60;;;3.90;99.90;;;;;;7390365;19;20624;-80
2022/04/02 13:11:59;;;;;;;6.00;5.40;;;3.80;99.90;;;;;;7389808;19;20142;-80
2022/04/02 13:14:27;;;;;;;8.70;6.13;;;3.90;99.90;;;;;;7388571;19;20617;-79
2022/04/02 13:17:12;;;;;;;8.30;6.60;;;3.90;99.90;;;;;;7387858;19;20218;-79
2022/04/02 13:22:41;;;;;;;8.70;6.43;;;3.90;99.90;;;;;;7406060;19;20139;-79
2022/04/02 13:25:13;;;;;;;9.57;6.30;;;3.90;99.90;;;;;;7395450;19;20164;-80
2022/04/02 13:28:17;;;;;;;8.27;5.63;;;3.90;99.90;;;;;;7402965;19;20192;-78